createdAt,value
2023-05-28T00:00:36.176Z,12.71
2023-05-28T00:03:04.860Z,12.70
2023-05-28T00:05:34.901Z,12.71
2023-05-28T00:08:03.329Z,12.72
2023-05-28T00:10:31.870Z,12.73
2023-05-28T00:13:00.866Z,12.76
2023-05-28T00:15:29.595Z,12.78
2023-05-28T00:17:58.806Z,12.81
2023-05-28T00:20:27.732Z,12.83
2023-05-28T00:22:58.065Z,12.85
2023-05-28T00:25:26.769Z,12.89
2023-05-28T00:27:55.513Z,12.92
2023-05-28T00:30:26.007Z,12.95
2023-05-28T00:32:56.115Z,12.97
2023-05-28T00:35:26.286Z,13.01
2023-05-28T00:37:56.140Z,13.03
2023-05-28T00:40:24.955Z,13.05
2023-05-28T00:42:54.370Z,13.08
2023-05-28T00:45:22.868Z,13.10
2023-05-28T00:47:52.453Z,13.12
2023-05-28T00:50:21.687Z,13.14
2023-05-28T00:52:53.181Z,13.15
2023-05-28T00:55:23.490Z,13.19
2023-05-28T00:57:55.593Z,13.20
2023-05-28T01:00:25.131Z,13.19
2023-05-28T01:03:04.249Z,13.22
2023-05-28T01:05:33.118Z,13.21
2023-05-28T01:08:02.622Z,13.20
2023-05-28T01:10:33.982Z,13.19
2023-05-28T01:13:05.883Z,13.18
2023-05-28T01:15:35.197Z,13.19
2023-05-28T01:18:04.539Z,13.18
2023-05-28T01:20:33.720Z,13.18
2023-05-28T01:23:08.365Z,13.18
2023-05-28T01:25:39.891Z,13.17
2023-05-28T01:28:18.000Z,13.14
2023-05-28T01:30:47.013Z,13.14
2023-05-28T01:33:17.635Z,13.14
2023-05-28T01:35:46.296Z,13.15
2023-05-28T01:38:17.373Z,13.16
2023-05-28T01:40:49.972Z,13.17
2023-05-28T01:43:21.219Z,13.19
2023-05-28T01:45:50.809Z,13.20
2023-05-28T01:48:20.382Z,13.24
2023-05-28T01:50:49.105Z,13.26
2023-05-28T01:53:17.620Z,13.28
2023-05-28T01:55:47.504Z,13.30
2023-05-28T01:58:16.049Z,13.31
2023-05-28T02:00:52.805Z,13.34
2023-05-28T02:03:21.414Z,13.36
2023-05-28T02:05:49.836Z,13.37
2023-05-28T02:08:18.372Z,13.38
2023-05-28T02:10:48.417Z,13.38
2023-05-28T02:13:17.659Z,13.37
2023-05-28T02:15:47.413Z,13.37
2023-05-28T02:18:16.118Z,13.37
2023-05-28T02:20:44.937Z,13.38
2023-05-28T02:23:13.823Z,13.37
2023-05-28T02:25:42.777Z,13.34
2023-05-28T02:28:12.835Z,13.33
2023-05-28T02:30:41.700Z,13.32
2023-05-28T02:33:10.632Z,13.31
2023-05-28T02:35:40.343Z,13.31
2023-05-28T02:38:09.251Z,13.30
2023-05-28T02:40:37.677Z,13.30
2023-05-28T02:43:06.427Z,13.29
2023-05-28T02:45:36.498Z,13.28
2023-05-28T02:48:06.045Z,13.27
2023-05-28T02:50:34.586Z,13.28
2023-05-28T02:53:05.341Z,13.27
2023-05-28T02:55:34.005Z,13.28
2023-05-28T02:58:02.576Z,13.29
2023-05-28T03:00:31.218Z,13.30
2023-05-28T03:03:01.285Z,13.31
2023-05-28T03:05:32.416Z,13.34
2023-05-28T03:08:01.186Z,13.36
2023-05-28T03:10:30.326Z,13.35
2023-05-28T03:12:59.024Z,13.39
2023-05-28T03:15:27.979Z,13.39
2023-05-28T03:17:56.775Z,13.37
2023-05-28T03:20:27.015Z,13.35
2023-05-28T03:22:58.667Z,13.30
2023-05-28T03:25:27.675Z,13.27
2023-05-28T03:27:56.508Z,13.25
2023-05-28T03:30:25.207Z,13.25
2023-05-28T03:32:53.882Z,13.24
2023-05-28T03:35:22.579Z,13.21
2023-05-28T03:37:52.434Z,13.18
2023-05-28T03:40:23.638Z,13.15
2023-05-28T03:42:52.046Z,13.12
2023-05-28T03:45:20.558Z,13.09
2023-05-28T03:47:49.232Z,13.05
2023-05-28T03:50:17.807Z,13.02
2023-05-28T03:52:46.554Z,12.98
2023-05-28T03:55:16.802Z,12.94
2023-05-28T03:57:46.151Z,12.92
2023-05-28T04:00:18.702Z,12.87
2023-05-28T04:02:47.660Z,12.87
2023-05-28T04:05:16.508Z,12.86
2023-05-28T04:07:45.567Z,12.85
2023-05-28T04:10:16.015Z,12.87
2023-05-28T04:12:45.376Z,12.87
2023-05-28T04:15:17.473Z,12.89
2023-05-28T04:17:46.330Z,12.91
2023-05-28T04:20:15.516Z,12.94
2023-05-28T04:22:44.628Z,12.94
2023-05-28T04:25:20.027Z,12.96
2023-05-28T04:27:48.533Z,13.00
2023-05-28T04:30:17.090Z,13.02
2023-05-28T04:32:45.564Z,13.05
2023-05-28T04:35:15.790Z,13.08
2023-05-28T04:37:45.600Z,13.10
2023-05-28T04:40:14.694Z,13.12
2023-05-28T04:42:45.161Z,13.13
2023-05-28T04:45:14.905Z,13.15
2023-05-28T04:47:44.182Z,13.18
2023-05-28T04:50:13.205Z,13.20
2023-05-28T04:52:41.965Z,13.22
2023-05-28T04:55:11.563Z,13.26
2023-05-28T04:57:40.079Z,13.30
2023-05-28T05:00:14.502Z,13.35
2023-05-28T05:02:43.290Z,13.41
2023-05-28T05:05:12.288Z,13.48
2023-05-28T05:07:41.830Z,13.59
2023-05-28T05:10:12.401Z,13.68
2023-05-28T05:12:41.089Z,13.81
2023-05-28T05:15:11.772Z,13.93
2023-05-28T05:17:40.489Z,14.07
2023-05-28T05:20:13.381Z,14.20
2023-05-28T05:22:42.014Z,14.35
2023-05-28T05:25:11.339Z,14.49
2023-05-28T05:27:40.118Z,14.65
2023-05-28T05:30:11.996Z,14.75
2023-05-28T05:32:40.393Z,14.88
2023-05-28T05:35:10.301Z,14.95
2023-05-28T05:37:38.816Z,14.98
2023-05-28T05:40:10.201Z,15.00
2023-05-28T05:42:38.766Z,14.99
2023-05-28T05:45:11.062Z,14.96
2023-05-28T05:47:41.652Z,14.97
2023-05-28T05:50:13.393Z,15.05
2023-05-28T05:52:42.684Z,15.15
2023-05-28T05:55:11.749Z,15.26
2023-05-28T05:57:40.711Z,15.37
2023-05-28T06:00:11.667Z,15.48
2023-05-28T06:02:42.403Z,15.56
2023-05-28T06:05:12.221Z,15.63
2023-05-28T06:07:40.845Z,15.71
2023-05-28T06:10:10.990Z,15.81
2023-05-28T06:12:39.605Z,15.94
2023-05-28T06:15:09.645Z,16.07
2023-05-28T06:17:38.185Z,16.16
2023-05-28T06:20:10.235Z,16.26
2023-05-28T06:22:38.885Z,16.35
2023-05-28T06:25:09.837Z,16.43
2023-05-28T06:27:38.421Z,16.49
2023-05-28T06:30:08.702Z,16.60
2023-05-28T06:32:38.348Z,16.74
2023-05-28T06:35:10.203Z,16.88
2023-05-28T06:37:40.637Z,16.98
2023-05-28T06:40:12.032Z,17.12
2023-05-28T06:42:41.016Z,17.20
2023-05-28T06:45:10.925Z,17.27
2023-05-28T06:47:39.613Z,17.33
2023-05-28T06:50:10.639Z,17.38
2023-05-28T06:52:39.148Z,17.40
2023-05-28T06:55:09.837Z,17.43
2023-05-28T06:57:38.710Z,17.46
2023-05-28T07:00:10.619Z,17.55
2023-05-28T07:02:39.661Z,17.65
2023-05-28T07:05:10.749Z,17.73
2023-05-28T07:07:39.571Z,17.77
2023-05-28T07:10:10.067Z,17.88
2023-05-28T07:12:39.358Z,17.92
2023-05-28T07:15:09.997Z,17.96
2023-05-28T07:17:38.743Z,18.00
2023-05-28T07:20:10.117Z,18.06
2023-05-28T07:22:38.635Z,18.17
2023-05-28T07:25:08.830Z,18.28
2023-05-28T07:27:38.160Z,18.42
2023-05-28T07:30:07.904Z,18.57
2023-05-28T07:32:36.491Z,18.65
2023-05-28T07:35:06.190Z,18.68
2023-05-28T07:37:36.276Z,18.76
2023-05-28T07:40:06.390Z,18.80
2023-05-28T07:42:34.906Z,18.85
2023-05-28T07:45:03.403Z,18.98
2023-05-28T07:47:32.157Z,19.09
2023-05-28T07:50:00.689Z,19.18
2023-05-28T07:52:30.638Z,19.24
2023-05-28T07:55:01.578Z,19.34
2023-05-28T07:57:30.237Z,19.50
2023-05-28T07:59:59.046Z,19.62
2023-05-28T08:02:28.274Z,19.75
2023-05-28T08:04:58.281Z,19.89
2023-05-28T08:07:26.916Z,19.96
2023-05-28T08:09:55.480Z,20.04
2023-05-28T08:12:25.948Z,20.12
2023-05-28T08:14:54.595Z,20.17
2023-05-28T08:17:24.732Z,20.27
2023-05-28T08:20:01.367Z,20.31
2023-05-28T08:22:31.155Z,20.35
2023-05-28T08:25:00.013Z,20.39
2023-05-28T08:27:30.193Z,20.48
2023-05-28T08:29:58.946Z,20.54
2023-05-28T08:32:27.415Z,20.60
2023-05-28T08:34:55.969Z,20.71
2023-05-28T08:37:24.580Z,20.85
2023-05-28T08:39:53.261Z,20.98
2023-05-28T08:42:22.433Z,21.12
2023-05-28T08:44:52.288Z,21.24
2023-05-28T08:47:20.962Z,21.34
2023-05-28T08:49:54.211Z,21.47
2023-05-28T08:52:25.180Z,21.57
2023-05-28T08:54:54.406Z,21.69
2023-05-28T08:57:23.757Z,21.78
2023-05-28T08:59:55.516Z,21.90
2023-05-28T09:02:27.444Z,22.01
2023-05-28T09:04:58.243Z,22.10
2023-05-28T09:07:27.874Z,22.16
2023-05-28T09:09:58.088Z,22.21
2023-05-28T09:12:27.638Z,22.30
2023-05-28T09:14:58.566Z,22.38
2023-05-28T09:17:37.125Z,22.42
2023-05-28T09:20:13.794Z,22.36
2023-05-28T09:22:43.155Z,22.45
2023-05-28T09:25:12.952Z,22.50
2023-05-28T09:27:41.741Z,22.59
2023-05-28T09:30:13.268Z,22.74
2023-05-28T09:32:42.202Z,22.80
2023-05-28T09:35:12.038Z,22.87
2023-05-28T09:37:40.837Z,22.96
2023-05-28T09:40:11.264Z,23.08
2023-05-28T09:42:43.541Z,23.16
2023-05-28T09:45:24.616Z,23.26
2023-05-28T09:47:53.310Z,23.40
2023-05-28T09:50:22.260Z,23.54
2023-05-28T09:52:51.275Z,23.66
2023-05-28T09:55:21.374Z,23.82
2023-05-28T09:58:00.962Z,23.98
2023-05-28T10:00:35.036Z,24.10
2023-05-28T10:03:16.331Z,24.13
2023-05-28T10:05:51.647Z,24.07
2023-05-28T10:08:21.964Z,24.13
2023-05-28T10:10:55.085Z,24.20
2023-05-28T10:13:25.068Z,24.33
2023-05-28T10:15:56.417Z,24.45
2023-05-28T10:18:27.213Z,24.53
2023-05-28T10:20:57.089Z,24.63
2023-05-28T10:23:26.849Z,24.69
2023-05-28T10:25:56.480Z,24.69
2023-05-28T10:28:25.454Z,24.74
2023-05-28T10:31:07.355Z,24.84
2023-05-28T10:33:41.898Z,24.90
2023-05-28T10:36:16.375Z,24.95
2023-05-28T10:38:46.623Z,24.95
2023-05-28T10:41:22.539Z,24.93
2023-05-28T10:43:52.148Z,24.99
2023-05-28T10:46:29.373Z,25.11
2023-05-28T10:49:14.952Z,25.26
2023-05-28T10:51:53.090Z,25.32
2023-05-28T10:54:26.970Z,25.43
2023-05-28T10:57:20.327Z,25.50
2023-05-28T10:59:51.089Z,25.49
2023-05-28T11:02:26.798Z,25.45
2023-05-28T11:04:59.705Z,25.41
2023-05-28T11:07:33.826Z,25.47
2023-05-28T11:10:04.835Z,25.59
2023-05-28T11:12:37.880Z,25.69
2023-05-28T11:15:08.111Z,25.63
2023-05-28T11:17:41.656Z,25.55
2023-05-28T11:20:20.638Z,25.56
2023-05-28T11:22:49.990Z,25.53
2023-05-28T11:25:20.443Z,25.54
2023-05-28T11:27:51.949Z,25.52
2023-05-28T11:30:22.538Z,25.66
2023-05-28T11:32:52.625Z,25.81
2023-05-28T11:35:21.427Z,25.90
2023-05-28T11:37:49.897Z,25.99
2023-05-28T11:40:19.042Z,26.16
2023-05-28T11:42:47.855Z,26.37
2023-05-28T11:45:16.895Z,26.59
2023-05-28T11:47:47.766Z,26.79
2023-05-28T11:50:18.434Z,26.95
2023-05-28T11:52:47.830Z,27.08
2023-05-28T11:55:18.112Z,27.40
2023-05-28T11:57:56.671Z,27.75
2023-05-28T12:00:35.174Z,28.10
2023-05-28T12:03:04.083Z,28.39
2023-05-28T12:05:40.957Z,28.63
2023-05-28T12:08:10.265Z,29.05
2023-05-28T12:10:38.874Z,29.24
2023-05-28T12:13:08.304Z,29.41
2023-05-28T12:15:37.087Z,29.64
2023-05-28T12:18:06.296Z,29.82
2023-05-28T12:20:36.513Z,29.91
2023-05-28T12:23:09.264Z,29.83
2023-05-28T12:25:48.465Z,29.70
2023-05-28T12:28:19.085Z,29.77
2023-05-28T12:30:51.865Z,29.83
2023-05-28T12:33:21.219Z,30.02
2023-05-28T12:35:49.990Z,30.27
2023-05-28T12:38:21.944Z,30.59
2023-05-28T12:40:50.696Z,30.82
2023-05-28T12:43:19.305Z,31.00
2023-05-28T12:45:47.963Z,31.24
2023-05-28T12:48:17.762Z,31.49
2023-05-28T12:50:46.644Z,31.45
2023-05-28T12:53:15.274Z,31.24
2023-05-28T12:55:46.124Z,31.11
2023-05-28T12:58:15.211Z,31.00
2023-05-28T13:00:43.848Z,31.10
2023-05-28T13:03:12.540Z,31.34
2023-05-28T13:05:41.806Z,31.67
2023-05-28T13:08:10.382Z,31.51
2023-05-28T13:10:38.864Z,31.51
2023-05-28T13:13:08.682Z,31.65
2023-05-28T13:15:37.220Z,31.86
2023-05-28T13:18:06.176Z,31.89
2023-05-28T13:20:34.702Z,31.92
2023-05-28T13:23:03.756Z,32.09
2023-05-28T13:25:32.491Z,32.22
2023-05-28T13:28:03.132Z,32.40
2023-05-28T13:30:33.281Z,32.61
2023-05-28T13:33:01.774Z,32.75
2023-05-28T13:35:30.331Z,32.76
2023-05-28T13:37:58.888Z,32.98
2023-05-28T13:40:29.141Z,33.12
2023-05-28T13:42:57.770Z,33.54
2023-05-28T13:45:26.255Z,33.83
2023-05-28T13:47:56.179Z,33.81
2023-05-28T13:50:24.992Z,34.07
2023-05-28T13:52:53.675Z,33.84
2023-05-28T13:55:22.293Z,33.92
2023-05-28T13:57:51.292Z,33.96
2023-05-28T14:00:37.219Z,33.84
2023-05-28T14:03:09.655Z,34.03
2023-05-28T14:05:38.714Z,34.23
2023-05-28T14:08:07.352Z,34.47
2023-05-28T14:10:35.839Z,34.81
2023-05-28T14:13:04.426Z,35.18
2023-05-28T14:15:33.213Z,35.44
2023-05-28T14:18:01.934Z,35.69
2023-05-28T14:20:35.657Z,35.67
2023-05-28T14:23:04.478Z,35.82
2023-05-28T14:25:33.366Z,35.96
2023-05-28T14:28:11.400Z,36.09
2023-05-28T14:30:41.533Z,36.06
2023-05-28T14:33:11.542Z,35.94
2023-05-28T14:35:41.935Z,36.05
2023-05-28T14:38:10.450Z,36.03
2023-05-28T14:40:38.911Z,36.01
2023-05-28T14:43:07.618Z,36.07
2023-05-28T14:45:36.462Z,36.13
2023-05-28T14:48:05.213Z,35.93
2023-05-28T14:50:34.075Z,35.69
2023-05-28T14:53:03.999Z,35.63
2023-05-28T14:55:32.474Z,35.61
2023-05-28T14:58:00.996Z,35.66
2023-05-28T15:00:29.804Z,35.74
2023-05-28T15:02:58.664Z,36.02
2023-05-28T15:05:29.215Z,36.14
2023-05-28T15:07:58.245Z,36.70
2023-05-28T15:10:28.309Z,37.24
2023-05-28T15:12:58.679Z,37.12
2023-05-28T15:15:27.530Z,37.01
2023-05-28T15:17:56.761Z,36.82
2023-05-28T15:20:25.495Z,36.85
2023-05-28T15:22:54.045Z,36.54
2023-05-28T15:25:24.573Z,36.55
2023-05-28T15:27:54.938Z,36.67
2023-05-28T15:30:25.286Z,37.00
2023-05-28T15:32:59.028Z,37.11
2023-05-28T15:35:29.438Z,37.16
2023-05-28T15:37:58.935Z,37.13
2023-05-28T15:40:28.748Z,37.43
2023-05-28T15:43:06.144Z,37.62
2023-05-28T15:45:35.494Z,37.74
2023-05-28T15:48:04.177Z,37.67
2023-05-28T15:50:32.764Z,37.68
2023-05-28T15:53:02.683Z,37.66
2023-05-28T15:55:31.730Z,37.51
2023-05-28T15:58:02.430Z,37.46
2023-05-28T16:00:31.918Z,37.47
2023-05-28T16:03:01.224Z,37.11
2023-05-28T16:05:30.790Z,36.82
2023-05-28T16:08:04.330Z,37.02
2023-05-28T16:10:34.097Z,36.95
2023-05-28T16:13:08.461Z,37.01
2023-05-28T16:15:37.364Z,36.89
2023-05-28T16:18:08.819Z,36.80
2023-05-28T16:20:38.533Z,36.78
2023-05-28T16:23:07.996Z,36.52
2023-05-28T16:25:37.186Z,36.69
2023-05-28T16:28:08.168Z,37.14
2023-05-28T16:30:37.097Z,37.11
2023-05-28T16:33:06.607Z,36.99
2023-05-28T16:35:35.755Z,37.06
2023-05-28T16:38:05.200Z,36.68
2023-05-28T16:40:34.687Z,35.94
2023-05-28T16:43:03.724Z,35.89
2023-05-28T16:45:34.279Z,36.06
2023-05-28T16:48:03.550Z,35.97
2023-05-28T16:50:32.111Z,35.99
2023-05-28T16:53:00.766Z,36.04
2023-05-28T16:55:29.608Z,36.20
2023-05-28T16:57:58.506Z,36.55
2023-05-28T17:00:27.304Z,36.44
2023-05-28T17:02:57.702Z,35.85
2023-05-28T17:05:26.670Z,35.24
2023-05-28T17:07:55.190Z,34.99
2023-05-28T17:10:24.135Z,34.83
2023-05-28T17:12:52.659Z,34.91
2023-05-28T17:15:21.403Z,34.64
2023-05-28T17:17:50.017Z,34.52
2023-05-28T17:20:20.613Z,34.63
2023-05-28T17:22:49.381Z,34.33
2023-05-28T17:25:18.112Z,34.19
2023-05-28T17:27:47.278Z,34.14
2023-05-28T17:30:16.364Z,34.28
2023-05-28T17:32:45.139Z,34.11
2023-05-28T17:35:14.447Z,34.06
2023-05-28T17:37:44.650Z,34.31
2023-05-28T17:40:15.514Z,34.19
2023-05-28T17:42:45.790Z,34.31
2023-05-28T17:45:14.623Z,33.75
2023-05-28T17:47:43.641Z,33.03
2023-05-28T17:50:13.125Z,32.85
2023-05-28T17:52:41.804Z,33.20
2023-05-28T17:55:12.637Z,33.51
2023-05-28T17:57:42.827Z,33.28
2023-05-28T18:00:13.635Z,32.92
2023-05-28T18:02:42.238Z,32.58
2023-05-28T18:05:11.079Z,32.53
2023-05-28T18:07:39.511Z,32.56
2023-05-28T18:10:10.453Z,32.33
2023-05-28T18:12:40.573Z,32.08
2023-05-28T18:15:12.097Z,31.61
2023-05-28T18:17:40.824Z,31.16
2023-05-28T18:20:10.848Z,30.90
2023-05-28T18:22:39.664Z,30.67
2023-05-28T18:25:11.258Z,30.53
2023-05-28T18:27:41.643Z,30.20
2023-05-28T18:30:11.367Z,29.84
2023-05-28T18:32:39.834Z,29.33
2023-05-28T18:35:09.173Z,28.83
2023-05-28T18:37:37.610Z,28.48
2023-05-28T18:40:07.669Z,28.01
2023-05-28T18:42:36.233Z,27.44
2023-05-28T18:45:07.735Z,26.74
2023-05-28T18:47:36.934Z,25.62
2023-05-28T18:50:06.935Z,24.41
2023-05-28T18:52:36.166Z,23.48
2023-05-28T18:55:05.309Z,22.79
2023-05-28T18:57:33.969Z,22.22
2023-05-28T19:00:02.685Z,21.71
2023-05-28T19:02:32.767Z,21.19
2023-05-28T19:05:01.421Z,20.77
2023-05-28T19:07:30.376Z,20.41
2023-05-28T19:10:02.025Z,20.10
2023-05-28T19:12:32.043Z,19.76
2023-05-28T19:15:04.873Z,19.35
2023-05-28T19:17:34.986Z,18.96
2023-05-28T19:20:04.735Z,18.59
2023-05-28T19:22:33.745Z,18.27
2023-05-28T19:25:03.547Z,18.00
2023-05-28T19:27:32.496Z,17.75
2023-05-28T19:30:02.667Z,17.55
2023-05-28T19:32:31.276Z,17.36
2023-05-28T19:35:01.310Z,17.15
2023-05-28T19:37:29.927Z,16.96
2023-05-28T19:39:59.054Z,16.81
2023-05-28T19:42:30.522Z,16.60
2023-05-28T19:44:59.417Z,16.40
2023-05-28T19:47:28.210Z,16.27
2023-05-28T19:49:58.002Z,16.14
2023-05-28T19:52:29.461Z,15.99
2023-05-28T19:54:59.317Z,15.82
2023-05-28T19:57:28.403Z,15.69
2023-05-28T19:59:58.738Z,15.56
2023-05-28T20:02:27.928Z,15.40
2023-05-28T20:05:00.207Z,15.27
2023-05-28T20:07:30.609Z,15.12
2023-05-28T20:09:59.760Z,15.00
2023-05-28T20:12:28.544Z,14.91
2023-05-28T20:14:57.244Z,14.83
2023-05-28T20:17:25.788Z,14.74
2023-05-28T20:19:54.677Z,14.66
2023-05-28T20:22:23.501Z,14.56
2023-05-28T20:24:53.858Z,14.48
2023-05-28T20:27:22.458Z,14.39
2023-05-28T20:29:51.195Z,14.32
2023-05-28T20:32:22.027Z,14.26
2023-05-28T20:34:50.656Z,14.18
2023-05-28T20:37:19.293Z,14.10
2023-05-28T20:39:48.637Z,14.03
2023-05-28T20:42:19.099Z,13.95
2023-05-28T20:44:47.544Z,13.87
2023-05-28T20:47:16.902Z,13.79
2023-05-28T20:49:45.547Z,13.75
2023-05-28T20:52:14.475Z,13.71
2023-05-28T20:54:44.748Z,13.64
2023-05-28T20:57:14.395Z,13.60
2023-05-28T20:59:45.051Z,13.52
2023-05-28T21:02:13.501Z,13.45
2023-05-28T21:04:42.222Z,13.40
2023-05-28T21:07:14.032Z,13.35
2023-05-28T21:09:42.570Z,13.30
2023-05-28T21:12:11.200Z,13.26
2023-05-28T21:14:39.994Z,13.20
2023-05-28T21:17:10.221Z,13.15
2023-05-28T21:19:38.915Z,13.12
2023-05-28T21:22:09.779Z,13.09
2023-05-28T21:24:38.411Z,13.04
2023-05-28T21:27:07.369Z,13.00
2023-05-28T21:29:36.005Z,12.98
2023-05-28T21:32:04.514Z,12.91
2023-05-28T21:34:34.339Z,12.86
2023-05-28T21:37:02.773Z,12.82
2023-05-28T21:39:32.589Z,12.79
2023-05-28T21:42:01.510Z,12.77
2023-05-28T21:44:30.221Z,12.72
2023-05-28T21:46:58.689Z,12.68
2023-05-28T21:49:27.322Z,12.64
2023-05-28T21:51:57.700Z,12.61
2023-05-28T21:54:26.534Z,12.57
2023-05-28T21:56:54.999Z,12.54
2023-05-28T21:59:23.571Z,12.52
2023-05-28T22:01:52.091Z,12.48
2023-05-28T22:04:20.582Z,12.47
2023-05-28T22:06:49.515Z,12.44
2023-05-28T22:09:19.563Z,12.41
2023-05-28T22:11:48.173Z,12.38
2023-05-28T22:14:21.096Z,12.35
2023-05-28T22:16:50.704Z,12.34
2023-05-28T22:19:19.375Z,12.30
2023-05-28T22:21:48.110Z,12.28
2023-05-28T22:24:18.102Z,12.25
2023-05-28T22:26:46.577Z,12.23
2023-05-28T22:29:15.535Z,12.19
2023-05-28T22:31:44.420Z,12.15
2023-05-28T22:34:13.535Z,12.12
2023-05-28T22:36:42.293Z,12.08
2023-05-28T22:39:10.800Z,12.05
2023-05-28T22:41:41.301Z,12.02
2023-05-28T22:44:12.541Z,11.98
2023-05-28T22:46:41.782Z,11.96
2023-05-28T22:49:10.929Z,11.92
2023-05-28T22:51:39.431Z,11.88
2023-05-28T22:54:09.666Z,11.84
2023-05-28T22:56:43.682Z,11.83
2023-05-28T22:59:13.799Z,11.79
2023-05-28T23:01:42.948Z,11.77
2023-05-28T23:04:12.209Z,11.75
2023-05-28T23:06:42.456Z,11.73
2023-05-28T23:09:11.326Z,11.70
2023-05-28T23:11:41.517Z,11.69
2023-05-28T23:14:10.350Z,11.67
2023-05-28T23:16:41.357Z,11.64
2023-05-28T23:19:11.025Z,11.63
2023-05-28T23:21:40.595Z,11.60
2023-05-28T23:24:10.619Z,11.60
2023-05-28T23:26:40.554Z,11.58
2023-05-28T23:29:09.452Z,11.56
2023-05-28T23:31:37.994Z,11.51
2023-05-28T23:34:06.539Z,11.48
2023-05-28T23:36:34.938Z,11.44
2023-05-28T23:39:04.808Z,11.43
2023-05-28T23:41:33.328Z,11.40
2023-05-28T23:44:04.064Z,11.39
2023-05-28T23:46:34.304Z,11.37
2023-05-28T23:49:02.837Z,11.36
2023-05-28T23:51:33.266Z,11.35
2023-05-28T23:54:01.808Z,11.32
2023-05-28T23:56:30.588Z,11.29
2023-05-28T23:58:59.213Z,11.24
